createdAt,value
2019-05-03T00:02:12.267Z,4.67
2019-05-03T00:04:42.284Z,5.17
2019-05-03T00:07:11.825Z,6.40
2019-05-03T00:09:42.509Z,5.10
2019-05-03T00:12:12.519Z,4.78
2019-05-03T00:14:42.566Z,5.05
2019-05-03T00:17:11.756Z,6.17
2019-05-03T00:19:42.104Z,4.97
2019-05-03T00:22:12.237Z,5.47
2019-05-03T00:24:42.108Z,5.75
2019-05-03T00:27:12.593Z,4.65
2019-05-03T00:29:41.911Z,4.67
2019-05-03T00:32:12.504Z,6.20
2019-05-03T00:34:58.063Z,6.17
2019-05-03T00:37:28.129Z,6.03
2019-05-03T00:40:02.009Z,7.62
2019-05-03T00:42:31.739Z,5.80
2019-05-03T00:45:02.272Z,5.30
2019-05-03T00:47:32.725Z,6.87
2019-05-03T00:50:02.802Z,8.25
2019-05-03T00:52:31.852Z,6.87
2019-05-03T00:55:02.238Z,7.15
2019-05-03T00:57:32.363Z,5.87
2019-05-03T01:00:02.086Z,6.37
2019-05-03T01:02:31.872Z,6.80
2019-05-03T01:05:02.631Z,5.85
2019-05-03T01:07:31.824Z,5.60
2019-05-03T01:10:02.676Z,5.87
2019-05-03T01:12:32.347Z,7.62
2019-05-03T01:15:03.098Z,6.83
2019-05-03T01:17:32.296Z,6.08
2019-05-03T01:20:02.778Z,6.90
2019-05-03T01:22:32.182Z,6.17
2019-05-03T01:25:02.877Z,6.78
2019-05-03T01:27:32.585Z,7.65
2019-05-03T01:30:02.843Z,9.20
2019-05-03T01:32:32.873Z,7.80
2019-05-03T01:35:03.179Z,8.25
2019-05-03T01:37:36.240Z,8.23
2019-05-03T01:40:07.327Z,7.17
2019-05-03T01:42:35.766Z,9.65
2019-05-03T01:45:06.316Z,8.58
2019-05-03T01:47:36.746Z,9.23
2019-05-03T01:50:09.956Z,8.83
2019-05-03T01:52:42.687Z,9.85
2019-05-03T01:55:15.789Z,9.93
2019-05-03T01:57:42.459Z,10.13
2019-05-03T02:00:14.376Z,10.32
2019-05-03T02:02:47.459Z,9.10
2019-05-03T02:05:34.501Z,9.38
2019-05-03T02:08:03.012Z,9.13
2019-05-03T02:10:32.163Z,9.38
2019-05-03T02:13:01.717Z,9.90
2019-05-03T02:15:32.693Z,12.50
2019-05-03T02:18:02.670Z,12.53
2019-05-03T02:20:32.420Z,9.68
2019-05-03T02:23:02.773Z,11.53
2019-05-03T02:25:32.716Z,9.70
2019-05-03T02:28:01.904Z,11.65
2019-05-03T02:30:33.198Z,13.20
2019-05-03T02:33:03.737Z,9.60
2019-05-03T02:35:33.379Z,11.18
2019-05-03T02:38:06.952Z,11.78
2019-05-03T02:40:35.413Z,12.37
2019-05-03T02:43:26.094Z,11.53
2019-05-03T02:45:56.737Z,10.40
2019-05-03T02:48:36.521Z,11.70
2019-05-03T02:51:06.644Z,10.53
2019-05-03T02:53:36.005Z,10.85
2019-05-03T02:56:14.977Z,10.75
2019-05-03T02:58:35.880Z,11.35
2019-05-03T03:01:06.672Z,11.80
2019-05-03T03:03:36.570Z,10.78
2019-05-03T03:06:07.224Z,12.73
2019-05-03T03:08:37.655Z,11.63
2019-05-03T03:11:08.256Z,10.75
2019-05-03T03:13:38.308Z,14.25
2019-05-03T03:16:10.684Z,11.15
2019-05-03T03:18:41.026Z,11.28
2019-05-03T03:21:20.500Z,9.58
2019-05-03T03:24:10.676Z,12.78
2019-05-03T03:26:42.745Z,14.85
2019-05-03T03:29:11.616Z,12.35
2019-05-03T03:31:58.811Z,11.22
2019-05-03T03:34:30.779Z,12.90
2019-05-03T03:37:05.135Z,12.30
2019-05-03T03:39:30.353Z,13.35
2019-05-03T03:41:59.694Z,12.55
2019-05-03T03:44:28.338Z,14.35
2019-05-03T03:46:58.594Z,14.13
2019-05-03T03:49:28.555Z,16.02
2019-05-03T03:51:58.502Z,13.72
2019-05-03T03:54:28.545Z,12.55
2019-05-03T03:57:03.596Z,14.00
2019-05-03T03:59:27.856Z,13.10
2019-05-03T04:01:57.165Z,11.28
2019-05-03T04:04:26.399Z,13.10
2019-05-03T04:06:58.433Z,13.62
2019-05-03T04:09:25.779Z,14.30
2019-05-03T04:11:56.802Z,15.95
2019-05-03T04:14:27.342Z,14.45
2019-05-03T04:17:09.985Z,14.03
2019-05-03T04:19:41.143Z,14.68
2019-05-03T04:22:09.644Z,15.30
2019-05-03T04:24:38.502Z,16.67
2019-05-03T04:27:17.898Z,19.20
2019-05-03T04:29:45.487Z,14.28
2019-05-03T04:32:15.649Z,14.40
2019-05-03T04:34:45.571Z,19.50
2019-05-03T04:37:16.226Z,18.27
2019-05-03T04:39:45.882Z,14.68
2019-05-03T04:42:16.499Z,15.40
2019-05-03T04:44:45.839Z,16.12
2019-05-03T04:47:15.742Z,14.93
2019-05-03T04:49:46.600Z,13.40
2019-05-03T04:52:16.455Z,13.90
2019-05-03T04:54:56.009Z,13.05
2019-05-03T04:57:36.343Z,11.97
2019-05-03T04:59:56.075Z,14.98
2019-05-03T05:02:26.233Z,14.40
2019-05-03T05:04:55.622Z,13.80
2019-05-03T05:07:26.139Z,12.88
2019-05-03T05:09:56.234Z,11.70
2019-05-03T05:12:25.558Z,12.40
2019-05-03T05:14:56.409Z,12.30
2019-05-03T05:17:42.419Z,14.47
2019-05-03T05:20:16.130Z,13.18
2019-05-03T05:22:45.405Z,10.78
2019-05-03T05:25:18.898Z,12.82
2019-05-03T05:27:58.264Z,13.08
2019-05-03T05:30:26.763Z,16.20
2019-05-03T05:32:55.386Z,11.50
2019-05-03T05:35:24.832Z,12.70
2019-05-03T05:37:54.668Z,12.35
2019-05-03T05:40:24.569Z,12.33
2019-05-03T05:42:54.594Z,11.08
2019-05-03T05:45:24.603Z,10.68
2019-05-03T05:48:02.060Z,13.38
2019-05-03T05:50:35.342Z,14.50
2019-05-03T05:53:04.945Z,15.20
2019-05-03T05:55:41.287Z,14.78
2019-05-03T05:58:11.741Z,16.45
2019-05-03T06:00:44.787Z,17.45
2019-05-03T06:03:14.908Z,11.63
2019-05-03T06:05:44.703Z,12.65
2019-05-03T06:08:18.027Z,11.90
2019-05-03T06:10:48.120Z,12.37
2019-05-03T06:13:20.868Z,12.23
2019-05-03T06:16:07.024Z,12.43
2019-05-03T06:18:37.097Z,10.98
2019-05-03T06:21:25.555Z,11.08
2019-05-03T06:24:11.860Z,10.90
2019-05-03T06:26:44.226Z,11.93
2019-05-03T06:29:14.922Z,12.35
2019-05-03T06:31:51.127Z,14.90
2019-05-03T06:34:19.867Z,10.68
2019-05-03T06:36:51.424Z,11.05
2019-05-03T06:39:21.069Z,11.75
2019-05-03T06:41:54.661Z,10.05
2019-05-03T06:44:24.856Z,9.93
2019-05-03T06:46:55.114Z,9.60
2019-05-03T06:49:25.387Z,8.95
2019-05-03T06:51:54.622Z,10.00
2019-05-03T06:54:28.265Z,7.50
2019-05-03T06:56:55.348Z,9.68
2019-05-03T06:59:25.658Z,9.13
2019-05-03T07:02:12.011Z,7.65
2019-05-03T07:04:42.160Z,8.00
2019-05-03T07:07:15.510Z,6.95
2019-05-03T07:10:02.107Z,7.80
2019-05-03T07:12:49.178Z,7.40
2019-05-03T07:15:17.702Z,7.83
2019-05-03T07:17:46.502Z,6.90
2019-05-03T07:20:15.297Z,7.95
2019-05-03T07:22:44.478Z,7.87
2019-05-03T07:25:14.847Z,6.70
2019-05-03T07:27:45.194Z,8.15
2019-05-03T07:30:15.546Z,8.23
2019-05-03T07:32:45.452Z,7.08
2019-05-03T07:35:14.786Z,6.60
2019-05-03T07:37:45.104Z,5.78
2019-05-03T07:40:14.863Z,5.95
2019-05-03T07:42:44.899Z,9.08
2019-05-03T07:45:14.890Z,7.97
2019-05-03T07:47:45.207Z,6.30
2019-05-03T07:50:15.276Z,5.85
2019-05-03T07:52:45.122Z,7.10
2019-05-03T07:55:18.330Z,6.20
2019-05-03T07:57:55.469Z,6.47
2019-05-03T08:00:27.028Z,5.12
2019-05-03T08:02:55.521Z,5.95
2019-05-03T08:05:24.683Z,5.85
2019-05-03T08:07:55.246Z,5.80
2019-05-03T08:10:25.553Z,5.62
2019-05-03T08:12:54.446Z,7.65
2019-05-03T08:15:24.547Z,6.55
2019-05-03T08:17:55.304Z,6.83
2019-05-03T08:20:24.848Z,6.22
2019-05-03T08:22:54.683Z,5.92
2019-05-03T08:25:24.854Z,5.00
2019-05-03T08:27:54.914Z,4.50
2019-05-03T08:30:25.146Z,6.62
2019-05-03T08:33:05.534Z,6.35
2019-05-03T08:35:36.197Z,8.13
2019-05-03T08:38:04.995Z,7.37
2019-05-03T08:40:35.592Z,6.50
2019-05-03T08:43:05.857Z,6.25
2019-05-03T08:45:34.804Z,7.65
2019-05-03T08:48:05.570Z,4.45
2019-05-03T08:50:34.804Z,5.10
2019-05-03T08:53:05.080Z,6.62
2019-05-03T08:55:35.196Z,5.65
2019-05-03T08:58:05.264Z,7.22
2019-05-03T09:00:39.386Z,7.72
2019-05-03T09:03:07.811Z,8.70
2019-05-03T09:05:36.687Z,6.47
2019-05-03T09:08:05.838Z,7.87
2019-05-03T09:10:36.106Z,7.12
2019-05-03T09:13:10.559Z,5.75
2019-05-03T09:15:40.703Z,5.92
2019-05-03T09:18:09.620Z,5.35
2019-05-03T09:20:38.051Z,8.10
2019-05-03T09:23:06.916Z,5.37
2019-05-03T09:25:35.794Z,6.22
2019-05-03T09:28:06.278Z,6.10
2019-05-03T09:30:35.733Z,4.60
2019-05-03T09:33:08.668Z,5.05
2019-05-03T09:35:35.981Z,4.70
2019-05-03T09:38:05.860Z,6.20
2019-05-03T09:40:35.254Z,5.20
2019-05-03T09:43:04.693Z,5.67
2019-05-03T09:45:35.343Z,4.47
2019-05-03T09:48:05.676Z,4.47
2019-05-03T09:50:35.904Z,4.35
2019-05-03T09:53:05.493Z,5.33
2019-05-03T09:55:38.944Z,13.08
2019-05-03T09:58:07.377Z,12.88
2019-05-03T10:00:36.724Z,12.80
2019-05-03T10:03:05.774Z,15.10
2019-05-03T10:05:35.230Z,15.72
2019-05-03T10:08:05.071Z,16.40
2019-05-03T10:10:52.090Z,16.67
2019-05-03T10:13:23.525Z,17.20
2019-05-03T10:15:51.204Z,18.57
2019-05-03T10:18:21.487Z,18.55
2019-05-03T10:20:55.883Z,18.02
2019-05-03T10:23:37.499Z,22.10
2019-05-03T10:26:06.699Z,21.62
2019-05-03T10:28:35.175Z,39.53
2019-05-03T10:31:07.525Z,19.48
2019-05-03T10:33:45.023Z,18.10
2019-05-03T10:36:15.463Z,18.95
2019-05-03T10:38:45.947Z,17.62
2019-05-03T10:41:14.751Z,18.55
2019-05-03T10:43:46.389Z,15.70
2019-05-03T10:46:15.984Z,15.85
2019-05-03T10:48:45.286Z,19.80
2019-05-03T10:51:15.736Z,18.45
2019-05-03T10:53:49.444Z,19.40
2019-05-03T10:56:23.289Z,23.60
2019-05-03T10:58:57.740Z,22.58
2019-05-03T11:01:35.860Z,20.25
2019-05-03T11:04:05.337Z,17.25
2019-05-03T11:06:39.948Z,18.07
2019-05-03T11:09:08.528Z,21.45
2019-05-03T11:11:36.957Z,28.42
2019-05-03T11:14:05.783Z,15.72
2019-05-03T11:16:35.105Z,16.62
2019-05-03T11:19:05.416Z,15.03
2019-05-03T11:21:34.823Z,18.52
2019-05-03T11:24:03.519Z,15.00
2019-05-03T11:26:34.706Z,16.15
2019-05-03T11:29:05.207Z,17.65
2019-05-03T11:31:44.577Z,14.55
2019-05-03T11:34:25.342Z,16.70
2019-05-03T11:37:12.192Z,21.20
2019-05-03T11:39:40.893Z,17.73
2019-05-03T11:42:09.864Z,22.15
2019-05-03T11:44:38.348Z,14.58
2019-05-03T11:47:09.407Z,13.93
2019-05-03T11:49:37.903Z,15.15
2019-05-03T11:52:07.234Z,15.85
2019-05-03T11:54:36.169Z,21.15
2019-05-03T11:57:23.999Z,19.25
2019-05-03T11:59:54.790Z,22.30
2019-05-03T12:02:31.421Z,19.60
2019-05-03T12:05:01.493Z,21.20
2019-05-03T12:07:39.423Z,22.60
2019-05-03T12:10:13.668Z,23.12
2019-05-03T12:12:44.029Z,22.58
2019-05-03T12:15:14.986Z,24.07
2019-05-03T12:17:54.071Z,27.37
2019-05-03T12:20:17.968Z,23.30
2019-05-03T12:22:46.929Z,21.73
2019-05-03T12:25:23.505Z,21.45
2019-05-03T12:27:52.467Z,23.57
2019-05-03T12:30:21.092Z,19.95
2019-05-03T12:32:49.884Z,18.60
2019-05-03T12:35:18.352Z,17.73
2019-05-03T12:37:47.062Z,18.65
2019-05-03T12:40:16.264Z,17.05
2019-05-03T12:42:45.445Z,14.60
2019-05-03T12:45:15.237Z,17.77
2019-05-03T12:47:45.314Z,13.08
2019-05-03T12:50:15.690Z,11.53
2019-05-03T12:52:50.412Z,12.73
2019-05-03T12:55:15.368Z,11.35
2019-05-03T12:57:45.792Z,14.28
2019-05-03T13:00:34.857Z,10.98
2019-05-03T13:03:08.457Z,9.68
2019-05-03T13:05:36.944Z,10.05
2019-05-03T13:08:31.525Z,8.90
2019-05-03T13:10:59.966Z,11.65
2019-05-03T13:13:29.181Z,9.23
2019-05-03T13:15:57.613Z,11.22
2019-05-03T13:18:26.045Z,11.90
2019-05-03T13:20:55.821Z,9.70
2019-05-03T13:23:25.287Z,10.95
2019-05-03T13:25:55.236Z,13.05
2019-05-03T13:28:25.444Z,11.00
2019-05-03T13:30:54.619Z,10.38
2019-05-03T13:33:23.152Z,10.55
2019-05-03T13:35:51.937Z,10.93
2019-05-03T13:38:20.363Z,16.05
2019-05-03T13:40:54.395Z,13.72
2019-05-03T13:43:23.123Z,14.30
2019-05-03T13:45:51.555Z,11.48
2019-05-03T13:48:21.230Z,15.50
2019-05-03T13:50:50.733Z,13.28
2019-05-03T13:53:19.178Z,12.95
2019-05-03T13:55:47.620Z,13.75
2019-05-03T13:58:16.079Z,13.62
2019-05-03T14:00:47.381Z,12.95
2019-05-03T14:03:16.232Z,11.93
2019-05-03T14:05:44.933Z,10.80
2019-05-03T14:08:15.542Z,14.60
2019-05-03T14:10:45.582Z,11.65
2019-05-03T14:13:14.334Z,9.48
2019-05-03T14:15:42.764Z,10.30
2019-05-03T14:18:11.233Z,12.50
2019-05-03T14:20:55.082Z,12.50
2019-05-03T14:23:25.212Z,12.85
2019-05-03T14:25:55.244Z,13.45
2019-05-03T14:28:25.275Z,10.40
2019-05-03T14:30:54.786Z,9.63
2019-05-03T14:33:24.866Z,10.50
2019-05-03T14:35:55.211Z,13.15
2019-05-03T14:38:25.420Z,10.93
2019-05-03T14:40:55.153Z,11.55
2019-05-03T14:43:24.870Z,14.13
2019-05-03T14:45:54.984Z,10.30
2019-05-03T14:48:24.907Z,8.33
2019-05-03T14:50:54.943Z,9.53
2019-05-03T14:53:25.421Z,9.65
2019-05-03T14:55:58.857Z,10.85
2019-05-03T14:58:32.253Z,9.68
2019-05-03T15:01:04.659Z,9.73
2019-05-03T15:03:32.483Z,8.98
2019-05-03T15:06:00.908Z,9.73
2019-05-03T15:08:29.420Z,11.05
2019-05-03T15:10:57.858Z,10.98
2019-05-03T15:13:26.301Z,11.03
2019-05-03T15:15:57.473Z,10.15
2019-05-03T15:18:26.287Z,11.00
2019-05-03T15:20:55.098Z,11.15
2019-05-03T15:23:25.530Z,10.20
2019-05-03T15:25:54.569Z,10.70
2019-05-03T15:28:25.063Z,10.08
2019-05-03T15:30:55.359Z,11.55
2019-05-03T15:33:23.944Z,11.40
2019-05-03T15:35:52.397Z,10.53
2019-05-03T15:38:20.831Z,9.55
2019-05-03T15:40:49.722Z,9.20
2019-05-03T15:43:36.251Z,8.23
2019-05-03T15:46:06.645Z,9.55
2019-05-03T15:48:36.716Z,9.63
2019-05-03T15:51:05.464Z,12.20
2019-05-03T15:53:35.358Z,13.20
2019-05-03T15:56:05.366Z,11.12
2019-05-03T15:58:34.293Z,13.35
2019-05-03T16:01:04.589Z,9.23
2019-05-03T16:03:32.985Z,11.75
2019-05-03T16:06:01.416Z,11.53
2019-05-03T16:08:29.876Z,12.15
2019-05-03T16:10:58.669Z,11.05
2019-05-03T16:13:27.123Z,9.30
2019-05-03T16:15:55.800Z,10.78
2019-05-03T16:18:24.648Z,9.83
2019-05-03T16:20:54.597Z,10.03
2019-05-03T16:23:25.014Z,11.00
2019-05-03T16:25:59.637Z,11.53
2019-05-03T16:28:46.434Z,10.03
2019-05-03T16:31:17.370Z,11.25
2019-05-03T16:33:45.855Z,11.00
2019-05-03T16:36:14.824Z,11.28
2019-05-03T16:38:44.971Z,11.63
2019-05-03T16:41:17.520Z,11.40
2019-05-03T16:43:45.537Z,10.85
2019-05-03T16:46:14.569Z,11.85
2019-05-03T16:48:44.866Z,11.78
2019-05-03T16:51:16.854Z,16.35
2019-05-03T16:53:44.510Z,11.05
2019-05-03T16:56:15.034Z,10.82
2019-05-03T16:58:44.698Z,19.35
2019-05-03T17:01:15.910Z,12.20
2019-05-03T17:03:45.701Z,25.05
2019-05-03T17:06:34.878Z,10.93
2019-05-03T17:09:09.251Z,12.43
2019-05-03T17:11:37.695Z,13.08
2019-05-03T17:14:06.210Z,13.80
2019-05-03T17:16:34.649Z,13.68
2019-05-03T17:19:03.100Z,14.75
2019-05-03T17:21:31.604Z,14.25
2019-05-03T17:24:00.051Z,12.90
2019-05-03T17:26:28.494Z,15.23
2019-05-03T17:28:56.955Z,13.05
2019-05-03T17:31:25.751Z,12.80
2019-05-03T17:33:56.736Z,13.45
2019-05-03T17:36:25.059Z,14.45
2019-05-03T17:38:55.628Z,13.40
2019-05-03T17:41:37.909Z,11.35
2019-05-03T17:44:11.001Z,12.73
2019-05-03T17:46:39.792Z,14.65
2019-05-03T17:49:08.223Z,13.18
2019-05-03T17:51:38.308Z,12.65
2019-05-03T17:54:25.167Z,14.68
2019-05-03T17:56:58.304Z,14.00
2019-05-03T17:59:28.376Z,13.38
2019-05-03T18:02:15.316Z,12.18
2019-05-03T18:05:02.517Z,13.85
2019-05-03T18:07:47.651Z,13.75
2019-05-03T18:12:45.350Z,14.80
2019-05-03T18:15:14.730Z,17.27
2019-05-03T18:17:44.479Z,14.65
2019-05-03T18:20:14.944Z,12.65
2019-05-03T18:22:43.256Z,12.03
2019-05-03T18:25:11.764Z,13.20
2019-05-03T18:27:40.187Z,13.83
2019-05-03T18:30:08.776Z,14.05
2019-05-03T18:32:37.488Z,14.70
2019-05-03T18:35:07.578Z,13.25
2019-05-03T18:37:36.019Z,15.40
2019-05-03T18:40:06.412Z,15.03
2019-05-03T18:42:44.668Z,16.62
2019-05-03T18:45:29.989Z,18.15
2019-05-03T18:47:58.687Z,26.05
2019-05-03T18:50:27.161Z,16.80
2019-05-03T18:52:55.600Z,16.87
2019-05-03T18:55:25.218Z,19.23
2019-05-03T18:57:54.718Z,18.55
2019-05-03T19:00:25.118Z,19.57
2019-05-03T19:02:54.640Z,22.90
2019-05-03T19:05:25.152Z,20.37
2019-05-03T19:07:55.620Z,21.20
2019-05-03T19:10:35.415Z,24.92
2019-05-03T19:13:17.118Z,19.15
2019-05-03T19:15:45.553Z,20.82
2019-05-03T19:18:30.939Z,32.73
2019-05-03T19:20:59.664Z,31.73
2019-05-03T19:23:29.277Z,23.98
2019-05-03T19:25:57.788Z,19.05
2019-05-03T19:28:26.272Z,20.27
2019-05-03T19:30:55.072Z,20.50
2019-05-03T19:33:23.556Z,25.70
2019-05-03T19:35:52.326Z,21.15
2019-05-03T19:38:20.762Z,21.42
2019-05-03T19:40:49.503Z,21.95
2019-05-03T19:43:18.295Z,22.37
2019-05-03T19:45:46.816Z,19.70
2019-05-03T19:48:16.968Z,19.15
2019-05-03T19:50:45.600Z,22.62
2019-05-03T19:53:15.741Z,21.33
2019-05-03T19:55:44.893Z,21.07
2019-05-03T19:58:14.648Z,22.45
2019-05-03T20:00:57.543Z,20.85
2019-05-03T20:03:35.268Z,20.12
2019-05-03T20:06:21.715Z,19.57
2019-05-03T20:09:03.871Z,18.77
2019-05-03T20:11:32.349Z,19.67
2019-05-03T20:14:00.780Z,16.82
2019-05-03T20:16:29.289Z,16.52
2019-05-03T20:18:58.092Z,19.57
2019-05-03T20:21:26.577Z,17.57
2019-05-03T20:23:55.555Z,19.15
2019-05-03T20:26:25.289Z,18.27
2019-05-03T20:28:55.315Z,18.52
2019-05-03T20:31:25.298Z,17.70
2019-05-03T20:33:54.923Z,15.90
2019-05-03T20:36:23.736Z,16.40
2019-05-03T20:38:52.206Z,16.00
2019-05-03T20:41:27.578Z,15.32
2019-05-03T20:43:57.813Z,17.30
2019-05-03T20:46:33.580Z,18.92
2019-05-03T20:49:04.432Z,21.17
2019-05-03T20:51:34.543Z,19.82
2019-05-03T20:54:04.956Z,19.73
2019-05-03T20:56:33.559Z,19.77
2019-05-03T20:59:01.995Z,20.05
2019-05-03T21:01:30.448Z,22.87
2019-05-03T21:03:59.185Z,20.50
2019-05-03T21:06:35.509Z,19.52
2019-05-03T21:08:58.145Z,17.55
2019-05-03T21:11:32.385Z,18.10
2019-05-03T21:14:00.808Z,18.30
2019-05-03T21:16:34.467Z,13.72
2019-05-03T21:19:04.976Z,14.25
2019-05-03T21:21:35.528Z,15.43
2019-05-03T21:24:06.122Z,15.28
2019-05-03T21:26:34.800Z,15.98
2019-05-03T21:29:04.719Z,15.18
2019-05-03T21:31:35.065Z,15.03
2019-05-03T21:34:05.512Z,16.60
2019-05-03T21:36:34.848Z,16.32
2019-05-03T21:39:05.471Z,21.65
2019-05-03T21:41:35.218Z,16.82
2019-05-03T21:44:05.972Z,15.13
2019-05-03T21:46:48.069Z,14.13
2019-05-03T21:49:21.188Z,15.23
2019-05-03T21:51:49.615Z,14.18
2019-05-03T21:54:19.570Z,15.23
2019-05-03T21:56:48.023Z,14.70
2019-05-03T21:59:16.456Z,14.90
2019-05-03T22:01:46.682Z,13.90
2019-05-03T22:04:15.774Z,15.45
2019-05-03T22:06:44.655Z,12.93
2019-05-03T22:09:13.093Z,11.43
2019-05-03T22:11:41.555Z,14.53
2019-05-03T22:14:20.767Z,13.10
2019-05-03T22:16:51.291Z,12.58
2019-05-03T22:19:19.727Z,12.88
2019-05-03T22:21:50.211Z,11.83
2019-05-03T22:24:20.664Z,13.35
2019-05-03T22:26:50.730Z,12.30
2019-05-03T22:29:22.225Z,11.70
2019-05-03T22:31:50.644Z,11.80
2019-05-03T22:34:19.387Z,11.75
2019-05-03T22:36:47.814Z,8.63
2019-05-03T22:39:16.565Z,8.15
2019-05-03T22:41:48.121Z,8.58
2019-05-03T22:44:17.167Z,7.62
2019-05-03T22:46:46.016Z,7.15
2019-05-03T22:49:15.583Z,7.15
2019-05-03T22:51:46.159Z,9.75
2019-05-03T22:54:15.334Z,5.42
2019-05-03T22:56:44.867Z,6.47
2019-05-03T22:59:14.720Z,6.90
2019-05-03T23:01:45.779Z,9.28
2019-05-03T23:04:14.653Z,10.38
2019-05-03T23:06:46.807Z,10.10
2019-05-03T23:09:15.856Z,9.63
2019-05-03T23:11:44.980Z,9.48
2019-05-03T23:14:15.101Z,11.10
2019-05-03T23:16:44.907Z,8.60
2019-05-03T23:19:15.010Z,10.85
2019-05-03T23:21:46.171Z,11.10
2019-05-03T23:24:15.407Z,10.40
2019-05-03T23:26:45.281Z,10.20
2019-05-03T23:29:14.249Z,10.75
2019-05-03T23:31:44.706Z,7.87
2019-05-03T23:34:13.145Z,9.53
2019-05-03T23:36:41.835Z,11.28
2019-05-03T23:39:10.628Z,11.63
2019-05-03T23:41:39.428Z,11.22
2019-05-03T23:44:15.194Z,9.50
2019-05-03T23:46:45.524Z,10.78
2019-05-03T23:49:14.463Z,11.12
2019-05-03T23:51:50.579Z,9.40
2019-05-03T23:54:19.358Z,12.58
2019-05-03T23:56:47.882Z,11.80
2019-05-03T23:59:16.964Z,10.03
